createdAt,value
2022-09-02T00:00:08.478Z,99.90
2022-09-02T00:02:38.773Z,99.90
2022-09-02T00:05:08.024Z,99.90
2022-09-02T00:07:37.164Z,99.90
2022-09-02T00:10:05.997Z,99.90
2022-09-02T00:12:34.508Z,99.90
2022-09-02T00:15:03.154Z,99.90
2022-09-02T00:17:31.735Z,99.90
2022-09-02T00:20:01.673Z,99.90
2022-09-02T00:22:30.385Z,99.90
2022-09-02T00:24:58.939Z,99.90
2022-09-02T00:27:27.516Z,99.90
2022-09-02T00:29:56.153Z,99.90
2022-09-02T00:32:24.827Z,99.90
2022-09-02T00:34:53.758Z,99.90
2022-09-02T00:37:24.575Z,99.90
2022-09-02T00:39:53.662Z,99.90
2022-09-02T00:42:22.781Z,99.90
2022-09-02T00:44:52.040Z,99.90
2022-09-02T00:47:22.369Z,99.90
2022-09-02T00:49:53.066Z,99.90
2022-09-02T00:52:25.710Z,99.90
2022-09-02T00:54:56.857Z,99.90
2022-09-02T00:57:28.637Z,99.90
2022-09-02T01:00:00.025Z,99.90
2022-09-02T01:02:32.029Z,99.90
2022-09-02T01:05:00.919Z,99.90
2022-09-02T01:07:34.105Z,99.90
2022-09-02T01:10:22.861Z,99.90
2022-09-02T01:12:56.031Z,99.90
2022-09-02T01:15:24.752Z,99.90
2022-09-02T01:17:53.710Z,99.90
2022-09-02T01:20:24.524Z,99.90
2022-09-02T01:22:57.550Z,99.90
2022-09-02T01:25:28.649Z,99.90
2022-09-02T01:28:00.771Z,99.90
2022-09-02T01:30:30.096Z,99.90
2022-09-02T01:32:58.798Z,99.90
2022-09-02T01:35:27.455Z,99.90
2022-09-02T01:37:58.349Z,99.90
2022-09-02T01:40:28.767Z,99.90
2022-09-02T01:42:59.885Z,99.90
2022-09-02T01:45:29.541Z,99.90
2022-09-02T01:47:58.154Z,99.90
2022-09-02T01:50:26.986Z,99.90
2022-09-02T01:52:55.645Z,99.90
2022-09-02T01:55:25.718Z,99.90
2022-09-02T01:57:54.413Z,99.90
2022-09-02T02:00:23.742Z,99.90
2022-09-02T02:02:52.562Z,99.90
2022-09-02T02:05:21.271Z,99.90
2022-09-02T02:07:52.346Z,99.90
2022-09-02T02:10:22.206Z,99.90
2022-09-02T02:12:52.972Z,99.90
2022-09-02T02:17:51.006Z,99.90
2022-09-02T02:20:20.898Z,99.90
2022-09-02T02:22:49.874Z,99.90
2022-09-02T02:25:19.073Z,99.90
2022-09-02T02:27:53.302Z,99.90
2022-09-02T02:30:23.381Z,99.90
2022-09-02T02:32:52.857Z,99.90
2022-09-02T02:35:22.889Z,99.90
2022-09-02T02:37:52.085Z,99.90
2022-09-02T02:40:21.933Z,99.90
2022-09-02T02:42:54.526Z,99.90
2022-09-02T02:45:25.422Z,99.90
2022-09-02T02:47:54.978Z,99.90
2022-09-02T02:50:25.420Z,99.90
2022-09-02T02:52:55.082Z,99.90
2022-09-02T02:55:26.045Z,99.90
2022-09-02T02:57:56.597Z,99.90
2022-09-02T03:00:26.338Z,99.90
2022-09-02T03:02:56.517Z,99.90
2022-09-02T03:05:26.076Z,99.90
2022-09-02T03:07:54.800Z,99.90
2022-09-02T03:10:25.451Z,99.90
2022-09-02T03:12:56.512Z,99.90
2022-09-02T03:15:25.291Z,99.90
2022-09-02T03:17:55.995Z,99.90
2022-09-02T03:20:43.418Z,99.90
2022-09-02T03:23:13.444Z,99.90
2022-09-02T03:25:46.555Z,99.90
2022-09-02T03:28:39.263Z,99.90
2022-09-02T03:31:09.314Z,99.90
2022-09-02T03:33:37.980Z,99.90
2022-09-02T03:36:06.937Z,99.90
2022-09-02T03:38:57.739Z,99.90
2022-09-02T03:41:26.531Z,99.90
2022-09-02T03:43:59.472Z,99.90
2022-09-02T03:46:46.981Z,99.90
2022-09-02T03:49:15.926Z,99.90
2022-09-02T03:51:44.986Z,99.90
2022-09-02T03:54:14.005Z,99.90
2022-09-02T03:56:43.503Z,99.90
2022-09-02T03:59:15.006Z,99.90
2022-09-02T04:01:43.844Z,99.90
2022-09-02T04:04:12.412Z,99.90
2022-09-02T04:06:41.728Z,99.90
2022-09-02T04:09:11.287Z,99.90
2022-09-02T04:11:43.086Z,99.90
2022-09-02T04:14:14.965Z,99.90
2022-09-02T04:16:43.769Z,99.90
2022-09-02T04:19:13.817Z,99.90
2022-09-02T04:21:43.402Z,99.90
2022-09-02T04:24:13.238Z,99.90
2022-09-02T04:26:46.003Z,99.90
2022-09-02T04:29:19.307Z,99.90
2022-09-02T04:31:50.830Z,99.90
2022-09-02T04:34:19.770Z,99.90
2022-09-02T04:36:50.574Z,99.90
2022-09-02T04:39:20.639Z,99.90
2022-09-02T04:41:49.597Z,99.90
2022-09-02T04:44:19.951Z,99.90
2022-09-02T04:46:50.387Z,99.90
2022-09-02T04:49:37.818Z,99.90
2022-09-02T04:52:06.891Z,99.90
2022-09-02T04:54:35.931Z,99.90
2022-09-02T04:57:06.138Z,99.90
2022-09-02T04:59:37.926Z,99.90
2022-09-02T05:02:11.387Z,99.90
2022-09-02T05:04:40.406Z,99.90
2022-09-02T05:07:16.624Z,99.90
2022-09-02T05:09:47.798Z,99.90
2022-09-02T05:12:19.422Z,99.90
2022-09-02T05:14:55.800Z,99.90
2022-09-02T05:17:25.373Z,99.90
2022-09-02T05:19:54.847Z,99.90
2022-09-02T05:22:23.895Z,99.90
2022-09-02T05:24:53.079Z,99.90
2022-09-02T05:27:24.162Z,99.90
2022-09-02T05:29:59.662Z,99.90
2022-09-02T05:32:36.926Z,99.90
2022-09-02T05:35:07.172Z,99.90
2022-09-02T05:37:37.280Z,99.90
2022-09-02T05:40:24.546Z,99.90
2022-09-02T05:42:58.169Z,99.90
2022-09-02T05:45:28.611Z,99.90
2022-09-02T05:47:57.494Z,99.90
2022-09-02T05:50:28.678Z,99.90
2022-09-02T05:53:02.997Z,99.90
2022-09-02T05:55:31.730Z,99.90
2022-09-02T05:58:00.830Z,99.90
2022-09-02T06:00:31.253Z,99.90
2022-09-02T06:03:02.461Z,99.90
2022-09-02T06:05:38.549Z,99.90
2022-09-02T06:08:17.467Z,99.90
2022-09-02T06:10:46.150Z,99.90
2022-09-02T06:13:23.066Z,99.90
2022-09-02T06:16:14.469Z,99.90
2022-09-02T06:18:45.504Z,99.90
2022-09-02T06:21:15.394Z,99.90
2022-09-02T06:23:48.287Z,99.90
2022-09-02T06:26:18.279Z,99.90
2022-09-02T06:28:48.361Z,99.90
2022-09-02T06:31:21.913Z,99.90
2022-09-02T06:33:53.322Z,99.90
2022-09-02T06:36:24.944Z,99.90
2022-09-02T06:39:00.086Z,99.90
2022-09-02T06:41:30.176Z,99.90
2022-09-02T06:44:02.145Z,99.90
2022-09-02T06:46:33.707Z,99.90
2022-09-02T06:49:05.717Z,99.90
2022-09-02T06:51:36.021Z,99.90
2022-09-02T06:54:06.544Z,99.90
2022-09-02T06:56:38.289Z,99.90
2022-09-02T06:59:26.245Z,99.90
2022-09-02T07:02:00.142Z,99.90
2022-09-02T07:04:47.090Z,99.90
2022-09-02T07:07:20.254Z,99.90
2022-09-02T07:10:08.793Z,99.90
2022-09-02T07:12:41.018Z,99.90
2022-09-02T07:15:19.478Z,99.90
2022-09-02T07:17:51.772Z,99.90
2022-09-02T07:20:28.064Z,99.90
2022-09-02T07:23:02.986Z,99.90
2022-09-02T07:25:34.132Z,99.90
2022-09-02T07:28:03.012Z,99.90
2022-09-02T07:30:34.764Z,99.90
2022-09-02T07:33:14.605Z,99.90
2022-09-02T07:35:47.272Z,99.90
2022-09-02T07:38:34.452Z,99.90
2022-09-02T07:41:03.952Z,99.90
2022-09-02T07:43:35.558Z,99.90
2022-09-02T07:46:06.116Z,99.90
2022-09-02T07:48:37.187Z,99.90
2022-09-02T07:51:08.366Z,99.90
2022-09-02T07:53:39.862Z,99.90
2022-09-02T07:56:08.730Z,99.90
2022-09-02T07:58:37.928Z,99.90
2022-09-02T08:01:07.091Z,99.60
2022-09-02T08:03:38.180Z,99.20
2022-09-02T08:06:09.514Z,98.60
2022-09-02T08:08:38.186Z,98.20
2022-09-02T08:11:07.243Z,97.50
2022-09-02T08:13:36.251Z,97.10
2022-09-02T08:16:05.119Z,96.60
2022-09-02T08:18:34.161Z,95.90
2022-09-02T08:21:04.542Z,95.40
2022-09-02T08:23:37.214Z,94.90
2022-09-02T08:26:07.519Z,94.60
2022-09-02T08:28:36.191Z,94.20
2022-09-02T08:31:08.064Z,93.60
2022-09-02T08:33:37.173Z,93.20
2022-09-02T08:36:08.609Z,92.80
2022-09-02T08:38:38.007Z,92.40
2022-09-02T08:41:13.414Z,91.90
2022-09-02T08:43:43.962Z,91.30
2022-09-02T08:46:15.238Z,91.20
2022-09-02T08:48:46.835Z,90.70
2022-09-02T08:51:18.496Z,90.10
2022-09-02T08:54:07.107Z,89.70
2022-09-02T08:56:35.972Z,88.90
2022-09-02T08:59:04.877Z,87.60
2022-09-02T09:01:37.399Z,86.20
2022-09-02T09:04:13.880Z,85.70
2022-09-02T09:06:50.482Z,84.90
2022-09-02T09:09:24.082Z,84.00
2022-09-02T09:11:56.750Z,83.30
2022-09-02T09:14:49.887Z,82.40
2022-09-02T09:17:23.007Z,81.10
2022-09-02T09:19:54.220Z,80.20
2022-09-02T09:22:27.688Z,78.50
2022-09-02T09:24:58.639Z,77.70
2022-09-02T09:27:28.567Z,77.30
2022-09-02T09:29:57.165Z,77.20
2022-09-02T09:32:29.092Z,76.80
2022-09-02T09:35:01.813Z,76.50
2022-09-02T09:37:36.068Z,75.60
2022-09-02T09:40:23.185Z,74.50
2022-09-02T09:42:55.682Z,73.70
2022-09-02T09:45:29.192Z,72.50
2022-09-02T09:48:12.824Z,71.70
2022-09-02T09:50:41.846Z,71.20
2022-09-02T09:53:19.337Z,70.10
2022-09-02T09:55:55.730Z,69.90
2022-09-02T09:58:25.423Z,69.60
2022-09-02T10:00:56.616Z,68.80
2022-09-02T10:03:26.958Z,68.70
2022-09-02T10:06:19.006Z,68.80
2022-09-02T10:08:54.152Z,67.80
2022-09-02T10:11:28.189Z,67.00
2022-09-02T10:13:59.605Z,66.90
2022-09-02T10:16:50.083Z,66.30
2022-09-02T10:19:26.798Z,65.90
2022-09-02T10:22:00.708Z,65.50
2022-09-02T10:24:38.860Z,65.00
2022-09-02T10:27:09.374Z,64.60
2022-09-02T10:29:53.196Z,64.10
2022-09-02T10:32:26.344Z,64.50
2022-09-02T10:35:02.164Z,63.70
2022-09-02T10:37:36.358Z,63.50
2022-09-02T10:40:09.950Z,63.50
2022-09-02T10:42:43.446Z,62.90
2022-09-02T10:45:15.720Z,62.40
2022-09-02T10:47:46.082Z,61.80
2022-09-02T10:50:23.663Z,61.20
2022-09-02T10:53:03.749Z,60.50
2022-09-02T10:55:58.802Z,60.30
2022-09-02T10:58:31.683Z,59.00
2022-09-02T11:01:21.559Z,59.00
2022-09-02T11:03:59.343Z,58.60
2022-09-02T11:06:40.418Z,57.90
2022-09-02T11:09:27.536Z,57.80
2022-09-02T11:12:01.247Z,57.20
2022-09-02T11:14:35.391Z,56.60
2022-09-02T11:17:26.433Z,55.60
2022-09-02T11:19:58.918Z,54.60
2022-09-02T11:22:30.810Z,54.50
2022-09-02T11:25:02.651Z,53.90
2022-09-02T11:27:42.605Z,52.80
2022-09-02T11:30:16.158Z,52.20
2022-09-02T11:32:47.754Z,51.60
2022-09-02T11:35:19.921Z,51.60
2022-09-02T11:38:07.851Z,51.50
2022-09-02T11:40:40.538Z,51.20
2022-09-02T11:43:17.513Z,50.90
2022-09-02T11:46:05.403Z,50.60
2022-09-02T11:48:46.645Z,49.90
2022-09-02T11:51:30.500Z,49.90
2022-09-02T11:54:00.630Z,49.40
2022-09-02T11:56:30.800Z,49.70
2022-09-02T11:59:01.108Z,49.90
2022-09-02T12:01:32.400Z,50.80
2022-09-02T12:04:58.208Z,50.30
2022-09-02T12:07:13.108Z,50.50
2022-09-02T12:12:36.861Z,49.80
2022-09-02T12:15:15.417Z,49.80
2022-09-02T12:18:08.422Z,49.60
2022-09-02T12:21:16.222Z,50.00
2022-09-02T12:24:15.562Z,49.30
2022-09-02T12:27:03.050Z,49.70
2022-09-02T12:29:52.185Z,50.50
2022-09-02T12:32:40.557Z,51.50
2022-09-02T12:35:12.269Z,52.40
2022-09-02T12:37:55.230Z,53.40
2022-09-02T12:40:52.260Z,54.00
2022-09-02T12:43:26.504Z,55.30
2022-09-02T12:45:56.736Z,55.90
2022-09-02T12:48:38.253Z,56.80
2022-09-02T12:51:09.254Z,58.00
2022-09-02T12:53:39.725Z,58.50
2022-09-02T12:56:18.466Z,58.60
2022-09-02T12:58:48.964Z,58.40
2022-09-02T13:01:20.077Z,57.60
2022-09-02T13:03:54.832Z,56.90
2022-09-02T13:06:28.620Z,57.00
2022-09-02T13:09:23.615Z,56.80
2022-09-02T13:12:04.401Z,56.30
2022-09-02T13:14:48.019Z,56.00
2022-09-02T13:17:39.665Z,55.30
2022-09-02T13:20:34.377Z,55.20
2022-09-02T13:23:35.874Z,55.10
2022-09-02T13:26:27.513Z,55.60
2022-09-02T13:29:14.634Z,55.10
2022-09-02T13:32:02.963Z,54.40
2022-09-02T13:34:32.986Z,54.30
2022-09-02T13:37:01.754Z,54.40
2022-09-02T13:39:30.931Z,54.70
2022-09-02T13:42:01.131Z,54.90
2022-09-02T13:44:31.042Z,55.00
2022-09-02T13:47:04.009Z,55.40
2022-09-02T13:49:37.628Z,55.40
2022-09-02T13:52:09.047Z,55.80
2022-09-02T13:54:39.078Z,55.60
2022-09-02T13:57:11.895Z,56.20
2022-09-02T13:59:41.274Z,56.00
2022-09-02T14:02:20.449Z,56.00
2022-09-02T14:04:54.643Z,56.20
2022-09-02T14:07:27.675Z,56.40
2022-09-02T14:09:59.302Z,56.20
2022-09-02T14:12:31.443Z,56.20
2022-09-02T14:15:00.653Z,56.30
2022-09-02T14:17:38.822Z,56.30
2022-09-02T14:20:24.376Z,56.40
2022-09-02T14:22:56.481Z,56.50
2022-09-02T14:25:27.567Z,56.50
2022-09-02T14:27:58.537Z,56.80
2022-09-02T14:30:32.489Z,57.10
2022-09-02T14:33:24.557Z,56.90
2022-09-02T14:35:57.767Z,56.80
2022-09-02T14:38:27.122Z,56.30
2022-09-02T14:41:02.546Z,56.60
2022-09-02T14:43:36.173Z,57.00
2022-09-02T14:46:08.691Z,57.10
2022-09-02T14:48:39.131Z,57.40
2022-09-02T14:51:09.086Z,57.80
2022-09-02T14:53:38.993Z,58.10
2022-09-02T14:56:08.073Z,58.30
2022-09-02T14:58:38.724Z,58.40
2022-09-02T15:01:25.950Z,58.60
2022-09-02T15:03:54.716Z,58.80
2022-09-02T15:06:23.680Z,59.10
2022-09-02T15:08:52.413Z,59.40
2022-09-02T15:11:22.071Z,59.80
2022-09-02T15:13:52.213Z,60.00
2022-09-02T15:16:20.907Z,60.00
2022-09-02T15:18:49.437Z,60.70
2022-09-02T15:21:18.504Z,61.10
2022-09-02T15:23:51.021Z,61.60
2022-09-02T15:26:38.585Z,62.20
2022-09-02T15:29:16.114Z,62.90
2022-09-02T15:31:52.345Z,63.20
2022-09-02T15:34:22.768Z,63.80
2022-09-02T15:36:52.296Z,64.20
2022-09-02T15:39:21.687Z,64.80
2022-09-02T15:41:50.779Z,65.30
2022-09-02T15:44:20.880Z,65.80
2022-09-02T15:46:50.200Z,66.40
2022-09-02T15:49:19.265Z,66.90
2022-09-02T15:51:49.401Z,67.30
2022-09-02T15:54:19.029Z,67.60
2022-09-02T15:56:48.262Z,68.20
2022-09-02T15:59:17.857Z,68.50
2022-09-02T16:01:49.333Z,68.90
2022-09-02T16:04:18.057Z,69.50
2022-09-02T16:06:49.467Z,70.00
2022-09-02T16:09:19.097Z,70.50
2022-09-02T16:11:55.453Z,71.10
2022-09-02T16:14:25.151Z,71.50
2022-09-02T16:16:56.470Z,71.70
2022-09-02T16:19:28.716Z,72.10
2022-09-02T16:21:59.193Z,72.40
2022-09-02T16:24:28.199Z,72.90
2022-09-02T16:26:56.919Z,73.60
2022-09-02T16:29:28.184Z,74.00
2022-09-02T16:34:49.362Z,74.70
2022-09-02T16:37:18.356Z,75.20
2022-09-02T16:39:47.041Z,75.80
2022-09-02T16:42:15.694Z,76.20
2022-09-02T16:44:45.451Z,76.60
2022-09-02T16:47:22.678Z,76.90
2022-09-02T16:49:51.595Z,77.10
2022-09-02T16:52:20.161Z,77.50
2022-09-02T16:54:49.182Z,77.90
2022-09-02T16:57:17.742Z,78.20
2022-09-02T16:59:46.904Z,78.50
2022-09-02T17:02:16.313Z,78.90
2022-09-02T17:04:46.580Z,79.30
2022-09-02T17:07:15.324Z,79.70
2022-09-02T17:09:44.040Z,80.10
2022-09-02T17:12:12.694Z,80.60
2022-09-02T17:14:41.296Z,80.90
2022-09-02T17:17:15.173Z,81.40
2022-09-02T17:19:43.917Z,81.80
2022-09-02T17:22:13.833Z,82.30
2022-09-02T17:24:42.832Z,82.60
2022-09-02T17:27:11.533Z,83.00
2022-09-02T17:29:49.859Z,83.40
2022-09-02T17:32:19.054Z,83.60
2022-09-02T17:34:47.977Z,83.80
2022-09-02T17:37:18.243Z,84.20
2022-09-02T17:39:47.405Z,84.50
2022-09-02T17:42:15.489Z,84.90
2022-09-02T17:44:44.358Z,85.10
2022-09-02T17:47:13.732Z,85.40
2022-09-02T17:49:44.786Z,85.80
2022-09-02T17:52:14.537Z,86.10
2022-09-02T17:54:46.436Z,86.40
2022-09-02T17:57:44.155Z,86.70
2022-09-02T18:00:23.653Z,87.10
2022-09-02T18:03:14.610Z,87.60
2022-09-02T18:05:52.022Z,88.00
2022-09-02T18:08:26.448Z,88.40
2022-09-02T18:10:58.372Z,88.90
2022-09-02T18:13:29.785Z,89.20
2022-09-02T18:16:05.914Z,89.50
2022-09-02T18:18:36.359Z,90.00
2022-09-02T18:21:09.847Z,90.10
2022-09-02T18:23:52.256Z,90.30
2022-09-02T18:26:24.554Z,90.50
2022-09-02T18:28:58.006Z,90.70
2022-09-02T18:31:34.408Z,90.80
2022-09-02T18:34:19.867Z,91.10
2022-09-02T18:36:53.089Z,91.20
2022-09-02T18:39:30.990Z,91.40
2022-09-02T18:42:08.419Z,91.60
2022-09-02T18:44:43.536Z,91.80
2022-09-02T18:47:15.155Z,92.00
2022-09-02T18:49:45.078Z,92.20
2022-09-02T18:52:15.446Z,92.30
2022-09-02T18:54:46.799Z,92.40
2022-09-02T18:57:16.951Z,92.60
2022-09-02T18:59:48.623Z,92.90
2022-09-02T19:02:37.421Z,93.10
2022-09-02T19:05:08.755Z,93.20
2022-09-02T19:07:54.847Z,93.40
2022-09-02T19:10:31.212Z,93.60
2022-09-02T19:13:02.055Z,93.80
2022-09-02T19:15:31.159Z,94.00
2022-09-02T19:18:00.267Z,94.20
2022-09-02T19:20:29.149Z,94.40
2022-09-02T19:23:15.078Z,94.70
2022-09-02T19:25:57.529Z,94.80
2022-09-02T19:28:29.576Z,95.10
2022-09-02T19:31:00.369Z,95.20
2022-09-02T19:33:34.207Z,95.50
2022-09-02T19:36:03.656Z,95.60
2022-09-02T19:38:32.224Z,95.80
2022-09-02T19:41:01.921Z,96.00
2022-09-02T19:43:32.013Z,96.30
2022-09-02T19:46:02.132Z,96.50
2022-09-02T19:48:31.550Z,96.80
2022-09-02T19:51:00.458Z,97.00
2022-09-02T19:53:30.537Z,97.40
2022-09-02T19:55:59.254Z,97.60
2022-09-02T19:58:28.106Z,97.80
2022-09-02T20:00:59.542Z,98.00
2022-09-02T20:03:29.046Z,98.20
2022-09-02T20:05:57.892Z,98.40
2022-09-02T20:08:29.130Z,98.60
2022-09-02T20:10:58.655Z,98.70
2022-09-02T20:13:27.661Z,98.90
2022-09-02T20:15:58.385Z,99.10
2022-09-02T20:18:28.169Z,99.30
2022-09-02T20:21:19.590Z,99.40
2022-09-02T20:23:48.665Z,99.60
2022-09-02T20:26:24.231Z,99.70
2022-09-02T20:28:59.651Z,99.90
2022-09-02T20:31:36.230Z,99.90
2022-09-02T20:34:12.750Z,99.90
2022-09-02T20:36:45.353Z,99.90
2022-09-02T20:39:23.824Z,99.90
2022-09-02T20:41:59.882Z,99.90
2022-09-02T20:44:44.531Z,99.90
2022-09-02T20:47:26.864Z,99.90
2022-09-02T20:50:02.885Z,99.90
2022-09-02T20:52:36.927Z,99.90
2022-09-02T20:55:10.855Z,99.90
2022-09-02T20:58:14.922Z,99.90
2022-09-02T21:00:48.872Z,99.90
2022-09-02T21:03:21.286Z,99.90
2022-09-02T21:05:54.167Z,99.90
2022-09-02T21:08:25.131Z,99.90
2022-09-02T21:10:56.642Z,99.90
2022-09-02T21:13:32.767Z,99.90
2022-09-02T21:16:24.772Z,99.90
2022-09-02T21:18:58.726Z,99.90
2022-09-02T21:21:49.209Z,99.90
2022-09-02T21:24:20.986Z,99.90
2022-09-02T21:26:53.499Z,99.90
2022-09-02T21:29:27.661Z,99.90
2022-09-02T21:31:58.144Z,99.90
2022-09-02T21:34:29.944Z,99.90
2022-09-02T21:37:20.458Z,99.90
2022-09-02T21:39:53.014Z,99.90
2022-09-02T21:42:24.574Z,99.90
2022-09-02T21:44:59.719Z,99.90
2022-09-02T21:47:30.387Z,99.90
2022-09-02T21:50:08.184Z,99.90
2022-09-02T21:52:46.079Z,99.90
2022-09-02T21:55:20.541Z,99.90
2022-09-02T21:57:55.381Z,99.90
2022-09-02T22:00:24.172Z,99.90
2022-09-02T22:02:58.223Z,99.90
2022-09-02T22:05:34.721Z,99.90
2022-09-02T22:08:06.253Z,99.90
2022-09-02T22:10:39.308Z,99.90
2022-09-02T22:13:08.655Z,99.90
2022-09-02T22:15:43.463Z,99.90
2022-09-02T22:18:16.799Z,99.90
2022-09-02T22:20:46.961Z,99.90
2022-09-02T22:23:24.102Z,99.90
2022-09-02T22:25:54.243Z,99.90
2022-09-02T22:28:26.084Z,99.90
2022-09-02T22:30:57.469Z,99.90
2022-09-02T22:33:29.629Z,99.90
2022-09-02T22:36:05.941Z,99.90
2022-09-02T22:38:53.783Z,99.90
2022-09-02T22:41:25.105Z,99.90
2022-09-02T22:43:56.109Z,99.90
2022-09-02T22:46:47.040Z,99.90
2022-09-02T22:49:34.930Z,99.90
2022-09-02T22:52:38.362Z,99.90
2022-09-02T22:55:09.595Z,99.90
2022-09-02T22:57:44.975Z,99.90
2022-09-02T23:00:14.537Z,99.90
2022-09-02T23:02:47.962Z,99.90
2022-09-02T23:05:41.608Z,99.90
2022-09-02T23:08:13.222Z,99.90
2022-09-02T23:10:47.534Z,99.90
2022-09-02T23:13:20.260Z,99.90
2022-09-02T23:15:58.797Z,99.90
2022-09-02T23:18:32.345Z,99.90
2022-09-02T23:21:05.234Z,99.90
2022-09-02T23:23:37.900Z,99.90
2022-09-02T23:26:10.926Z,99.90
2022-09-02T23:28:47.856Z,99.90
2022-09-02T23:31:22.289Z,99.90
2022-09-02T23:33:57.958Z,99.90
2022-09-02T23:36:35.525Z,99.90
2022-09-02T23:39:19.030Z,99.90
2022-09-02T23:41:48.165Z,99.90
2022-09-02T23:44:16.849Z,99.90
2022-09-02T23:46:49.549Z,99.90
2022-09-02T23:49:23.202Z,99.90
2022-09-02T23:51:57.279Z,99.90
2022-09-02T23:54:47.509Z,99.90
2022-09-02T23:57:27.563Z,99.90
